Flight Track Log - Related Links

Times and Time Zones

All times are in EDT time to prevent confusion due to time zone crossing. See the SKQ35 flight status page for this flight to view local times or setup timezone preferences in your user account.

Time Position Orientation Groundspeed Altitude Reporting Facility
EDT Latitude Longitude Course Direction KTS MPH feet Rate Location/Type
Thu 09:29:28 AM 33.5725 -86.7439 56° Northeast 147 169 1,200  Level Atlanta Center
Thu 09:30:16 AM 33.5919 -86.7097 56° Northeast 161 185 2,600 1,826 Climbing Atlanta Center
Thu 09:31:23 AM 33.6203 -86.6606 55° Northeast 157 181 4,700 1,632 Climbing Atlanta Center
Thu 09:32:21 AM 33.6483 -86.6192 51° Northeast 155 178 6,000 1,424 Climbing Atlanta Center
Thu 09:33:21 AM 33.6742 -86.5725 56° Northeast 161 185 7,500 1,550 Climbing Atlanta Center
Thu 09:34:21 AM 33.6958 -86.5356 55° Northeast 180 207 9,100 1,300 Climbing Atlanta Center
Thu 09:35:21 AM 33.7347 -86.4742 53° Northeast 186 214 10,100 450 Climbing Atlanta Center
Thu 09:36:21 AM 33.7736 -86.4131 53° Northeast 200 230 10,000 50 Descending Atlanta Center
Thu 09:37:21 AM 33.8144 -86.3492 52° Northeast 225 259 10,200 700 Climbing Atlanta Center
Thu 09:38:21 AM 33.8511 -86.2850 55° Northeast 230 265 11,400 1,200 Climbing Atlanta Center
Thu 09:39:21 AM 33.8875 -86.2283 52° Northeast 230 265 12,600 1,150 Climbing Atlanta Center
Thu 09:40:21 AM 33.9197 -86.1767 53° Northeast 211 243 13,700 1,050 Climbing Atlanta Center
Thu 09:41:21 AM 33.9564 -86.1150 54° Northeast 211 243 14,700 1,100 Climbing Atlanta Center
Thu 09:42:21 AM 33.9864 -86.0556 59° Northeast 211 243 15,900 1,200 Climbing Atlanta Center
Thu 09:43:21 AM 34.0106 -85.9911 66° East 205 236 17,100 1,000 Climbing Atlanta Center
Thu 09:44:21 AM 34.0281 -85.9311 71° East 194 223 17,900 900 Climbing Atlanta Center
Thu 09:45:21 AM 34.0519 -85.8692 65° Northeast 189 217 18,900 600 Climbing Atlanta Center
Thu 09:46:21 AM 34.0694 -85.8167 68° East 189 217 19,100 100 Climbing Atlanta Center
Thu 09:47:21 AM 34.1000 -85.7322 66° East 203 234 19,100  Level Atlanta Center
Thu 09:48:21 AM 34.1239 -85.6522 70° East 232 267 19,100  Level Atlanta Center
Thu 09:49:21 AM 34.1542 -85.5750 65° Northeast 247 284 19,100  Level Atlanta Center
Thu 09:50:21 AM 34.1781 -85.4925 71° East 252 290 19,100  Level Atlanta Center
Thu 09:51:21 AM 34.2081 -85.4203 63° Northeast 247 284 19,100  Level Atlanta Center
Thu 09:52:21 AM 34.2361 -85.3378 68° East 252 290 19,100  Level Atlanta Center
Thu 09:53:21 AM 34.2619 -85.2578 69° East 252 290 19,100  Level Atlanta Center
Thu 09:54:21 AM 34.2900 -85.1753 68° East 252 290 19,100 -50 Level Atlanta Center
Thu 09:55:21 AM 34.3156 -85.0975 68° East 252 290 19,000 -50 Descending Atlanta Center
Thu 09:56:21 AM 34.3436 -85.0150 68° East 252 290 19,000  Level Atlanta Center
Thu 09:57:21 AM 34.3711 -84.9347 67° East 252 290 19,000  Level Atlanta Center
Thu 09:58:21 AM 34.3969 -84.8519 69° East 252 290 19,000  Level Atlanta Center
Thu 09:59:21 AM 34.4267 -84.7717 66° East 252 290 19,000  Level Atlanta Center
Thu 10:00:21 AM 34.4542 -84.6911 67° East 252 290 19,000  Level Atlanta Center
Thu 10:01:21 AM 34.4797 -84.6083 69° East 252 290 19,000  Level Atlanta Center
Thu 10:02:21 AM 34.5069 -84.5278 68° East 252 290 19,000  Level Atlanta Center
Thu 10:03:21 AM 34.5344 -84.4447 68° East 252 290 19,000  Level Atlanta Center
Thu 10:04:21 AM 34.5619 -84.3642 67° East 252 290 19,000  Level Atlanta Center
Thu 10:05:21 AM 34.5892 -84.2811 68° East 252 290 19,000  Level Atlanta Center
Thu 10:06:21 AM 34.6144 -84.2003 69° East 247 284 19,000  Level Atlanta Center
Thu 10:07:21 AM 34.6417 -84.1169 68° East 252 290 19,000  Level Atlanta Center
Thu 10:08:21 AM 34.6686 -84.0361 68° East 252 290 19,000  Level Atlanta Center
Thu 10:09:21 AM 34.6958 -83.9528 68° East 252 290 19,000  Level Atlanta Center
Thu 10:10:21 AM 34.7228 -83.8694 69° East 252 290 19,000  Level Atlanta Center
Thu 10:11:21 AM 34.7542 -83.7886 65° Northeast 252 290 19,000  Level Atlanta Center
Thu 10:12:21 AM 34.7956 -83.7200 54° Northeast 252 290 19,000  Level Atlanta Center
Thu 10:13:21 AM 34.8392 -83.6492 53° Northeast 257 296 19,000  Level Atlanta Center
Thu 10:14:21 AM 34.8828 -83.5806 52° Northeast 257 296 19,000  Level Atlanta Center
Thu 10:15:21 AM 34.9242 -83.5017 57° Northeast 263 303 19,000  Level Atlanta Center
Thu 10:16:21 AM 34.9447 -83.4181 73° East 253 291 19,000  Level Atlanta Center
Thu 10:17:21 AM 34.9672 -83.3342 72° East 253 291 19,000  Level Atlanta Center
Thu 10:18:21 AM 34.9939 -83.2503 69° East 253 291 19,000  Level Atlanta Center
Thu 10:19:21 AM 35.0183 -83.1614 71° East 264 304 19,000  Level Atlanta Center
Thu 10:20:21 AM 35.0428 -83.0797 70° East 264 304 19,000  Level Atlanta Center
Thu 10:21:21 AM 35.0692 -82.9958 69° East 264 304 19,000  Level Atlanta Center
Thu 10:22:21 AM 35.0956 -82.9039 71° East 270 311 19,000  Level Atlanta Center
Thu 10:23:21 AM 35.1178 -82.8300 70° East 262 302 19,000  Level Atlanta Center
Thu 10:24:21 AM 35.1419 -82.7483 70° East 262 302 19,000  Level Atlanta Center
Thu 10:25:21 AM 35.1658 -82.6592 72° East 267 307 19,000  Level Atlanta Center
Thu 10:26:21 AM 35.1942 -82.5800 66° East 267 307 19,000  Level Atlanta Center
Thu 10:27:21 AM 35.2183 -82.4931 71° East 267 307 19,000  Level Atlanta Center
Thu 10:28:21 AM 35.2461 -82.3983 70° East 267 307 19,000  Level Atlanta Center
Thu 10:29:21 AM 35.2722 -82.3114 70° East 267 307 19,000  Level Atlanta Center
Thu 10:30:21 AM 35.2981 -82.2219 70° East 267 307 19,000  Level Atlanta Center
Thu 10:31:21 AM 35.3217 -82.1347 72° East 267 307 19,000  Level Atlanta Center
Thu 10:32:21 AM 35.3453 -82.0503 71° East 267 307 19,000  Level Atlanta Center
Thu 10:33:21 AM 35.3711 -81.9603 71° East 267 307 19,000  Level Atlanta Center
Thu 10:34:21 AM 35.3947 -81.8758 71° East 267 307 19,000  Level Atlanta Center
Thu 10:35:21 AM 35.4222 -81.7833 70° East 267 307 19,000  Level Atlanta Center
Thu 10:36:21 AM 35.4456 -81.6986 71° East 267 307 19,000  Level Atlanta Center
Thu 10:37:21 AM 35.4669 -81.6214 71° East 267 307 19,000  Level Atlanta Center
Thu 10:38:21 AM 35.4925 -81.5314 71° East 267 307 19,000  Level Atlanta Center
Thu 10:39:21 AM 35.5156 -81.4464 72° East 267 307 19,000  Level Atlanta Center
Thu 10:40:21 AM 35.5389 -81.3589 72° East 267 307 19,000  Level Atlanta Center
Thu 10:41:21 AM 35.5658 -81.2611 71° East 267 307 19,000  Level Atlanta Center
Thu 10:42:21 AM 35.5906 -81.1633 73° East 272 313 19,000  Level Atlanta Center
Thu 10:43:21 AM 35.6178 -81.0753 69° East 272 313 19,000  Level Atlanta Center
Thu 10:44:21 AM 35.6408 -80.9953 70° East 267 307 19,000  Level Atlanta Center
Thu 10:45:21 AM 35.6658 -80.9075 71° East 272 313 19,000  Level Atlanta Center
Thu 10:46:21 AM 35.6886 -80.8172 73° East 272 313 19,000  Level Atlanta Center
Thu 10:47:21 AM 35.7133 -80.7292 71° East 267 307 19,000 -650 Level Atlanta Center
Thu 10:48:21 AM 35.7397 -80.6308 72° East 278 320 17,700 -1,400 Descending Atlanta Center
Thu 10:49:21 AM 35.7683 -80.5325 70° East 297 342 16,200 -1,500 Descending Atlanta Center
Thu 10:50:21 AM 35.7944 -80.4289 73° East 310 357 14,700 -1,500 Descending Atlanta Center
Thu 10:51:21 AM 35.8267 -80.3172 70° East 310 357 13,200 -1,400 Descending Atlanta Center
Thu 10:52:21 AM 35.8486 -80.2217 74° East 309 356 11,900 -1,450 Descending Atlanta Center
Thu 10:53:21 AM 35.8786 -80.1150 71° East 309 356 10,300 -1,450 Descending Atlanta Center
Thu 10:54:21 AM 35.9028 -80.0164 73° East 304 350 9,000 -1,550 Descending Atlanta Center
Thu 10:55:21 AM 35.9289 -79.9256 70° East 289 333 7,200 -1,700 Descending Atlanta Center
Thu 10:56:21 AM 35.9511 -79.8397 72° East 279 321 5,600 -1,500 Descending Atlanta Center
Thu 10:57:21 AM 35.9733 -79.7617 71° East 274 315 4,200 -1,400 Descending Atlanta Center
Thu 10:59:00 AM 35.9962 -79.6282 68° East  Level FlightAware Approximate

Login

Don't have an account? Register now (free) for customized features, flight alerts, and more!